Terminal Aerodrome Forecast
Issued by NWS Memphis, TN

Home | Current Version | Previous Version | Text Only | Print | Product List | Glossary On
Versions: 1 2 3 4 5 6 7 8 9 10 11 12 13 14 15 16
000
FTUS44 KMEG 182042 AAA
TAFMKL
TAF AMD
KMKL 182042Z 1821/1918 24007KT P6SM BKN010
     FM190100 19003KT P6SM OVC008
     FM191000 19004KT 2SM -DZ BR OVC003
     FM191500 18004KT 6SM -SHRA BR OVC004=

USA.gov is the U.S. government's official web portal to all federal, state and local government web resources and services.